createdAt,value
2018-06-09T00:00:45.827Z,5.80
2018-06-09T00:03:14.060Z,6.30
2018-06-09T00:05:42.189Z,6.33
2018-06-09T00:08:10.336Z,7.30
2018-06-09T00:10:38.274Z,6.73
2018-06-09T00:13:06.401Z,7.53
2018-06-09T00:15:34.631Z,8.30
2018-06-09T00:18:03.669Z,9.23
2018-06-09T00:20:31.706Z,8.63
2018-06-09T00:22:59.824Z,9.97
2018-06-09T00:25:27.905Z,10.53
2018-06-09T00:27:56.002Z,11.60
2018-06-09T00:30:24.066Z,11.97
2018-06-09T00:32:52.144Z,13.93
2018-06-09T00:35:20.339Z,12.70
2018-06-09T00:37:48.663Z,14.53
2018-06-09T00:40:16.793Z,15.70
2018-06-09T00:42:45.002Z,14.30
2018-06-09T00:45:13.285Z,17.57
2018-06-09T00:47:41.685Z,18.10
2018-06-09T00:50:09.948Z,17.67
2018-06-09T00:52:38.045Z,17.83
2018-06-09T00:55:06.115Z,23.20
2018-06-09T00:57:34.187Z,21.87
2018-06-09T01:00:02.140Z,25.80
2018-06-09T01:02:30.200Z,23.57
2018-06-09T01:04:58.280Z,24.43
2018-06-09T01:07:26.368Z,27.57
2018-06-09T01:09:54.428Z,30.80
2018-06-09T01:12:22.572Z,30.43
2018-06-09T01:14:50.736Z,35.13
2018-06-09T01:17:18.868Z,33.67
2018-06-09T01:19:47.012Z,35.43
2018-06-09T01:22:15.217Z,30.80
2018-06-09T01:24:43.416Z,37.30
2018-06-09T01:27:11.640Z,34.93
2018-06-09T01:29:39.772Z,39.97
2018-06-09T01:32:07.868Z,38.13
2018-06-09T01:34:35.940Z,35.20
2018-06-09T01:37:04.041Z,46.30
2018-06-09T01:39:32.267Z,40.83
2018-06-09T01:42:00.388Z,51.30
2018-06-09T01:44:28.456Z,46.27
2018-06-09T01:46:56.535Z,53.93
2018-06-09T01:49:24.674Z,59.93
2018-06-09T01:51:52.823Z,59.43
2018-06-09T01:54:20.997Z,56.80
2018-06-09T01:56:49.124Z,61.87
2018-06-09T01:59:17.264Z,59.97
2018-06-09T02:01:45.393Z,57.83
2018-06-09T02:04:13.733Z,58.13
2018-06-09T02:06:41.924Z,62.27
2018-06-09T02:09:10.104Z,63.00
2018-06-09T02:11:38.386Z,62.70
2018-06-09T02:14:06.451Z,62.83
2018-06-09T02:16:34.586Z,64.23
2018-06-09T02:19:02.701Z,62.83
2018-06-09T02:21:30.977Z,67.97
2018-06-09T02:23:59.059Z,64.03
2018-06-09T02:26:27.132Z,59.27
2018-06-09T02:28:55.269Z,58.20
2018-06-09T02:31:23.395Z,57.97
2018-06-09T02:33:51.513Z,50.03
2018-06-09T02:36:19.668Z,52.90
2018-06-09T02:38:47.865Z,51.03
2018-06-09T02:41:16.053Z,50.77
2018-06-09T02:43:44.248Z,50.90
2018-06-09T02:46:12.359Z,45.27
2018-06-09T02:48:40.480Z,44.23
2018-06-09T02:51:08.597Z,40.87
2018-06-09T02:53:36.680Z,41.73
2018-06-09T02:56:04.779Z,37.83
2018-06-09T02:58:32.848Z,34.23
2018-06-09T03:01:01.690Z,33.53
2018-06-09T03:03:29.805Z,32.77
2018-06-09T03:05:57.876Z,31.87
2018-06-09T03:08:25.951Z,28.23
2018-06-09T03:10:53.895Z,26.40
2018-06-09T03:13:22.068Z,23.63
2018-06-09T03:15:50.251Z,21.70
2018-06-09T03:18:18.436Z,21.13
2018-06-09T03:20:46.589Z,19.23
2018-06-09T03:23:14.895Z,17.83
2018-06-09T03:25:43.134Z,15.63
2018-06-09T03:28:11.316Z,14.50
2018-06-09T03:30:39.439Z,13.83
2018-06-09T03:33:07.563Z,12.93
2018-06-09T03:35:35.710Z,11.93
2018-06-09T03:38:03.780Z,10.80
2018-06-09T03:40:31.687Z,10.10
2018-06-09T03:42:59.756Z,9.67
2018-06-09T03:45:27.816Z,9.37
2018-06-09T03:47:55.900Z,8.30
2018-06-09T03:50:23.764Z,7.83
2018-06-09T03:52:51.928Z,7.37
2018-06-09T03:55:20.044Z,6.90
2018-06-09T03:57:47.991Z,6.97
2018-06-09T04:00:16.348Z,6.80
2018-06-09T04:02:44.485Z,6.30
2018-06-09T04:05:12.730Z,6.47
2018-06-09T04:07:40.954Z,5.60
2018-06-09T04:10:09.081Z,5.70
2018-06-09T04:12:37.212Z,5.70
2018-06-09T04:15:05.281Z,5.27
2018-06-09T04:17:33.349Z,5.33
2018-06-09T04:20:01.421Z,5.17
2018-06-09T04:22:29.500Z,5.07
2018-06-09T04:24:57.702Z,4.80
2018-06-09T04:27:25.752Z,5.43
2018-06-09T04:29:53.824Z,4.87
2018-06-09T04:32:21.956Z,4.43
2018-06-09T04:34:50.069Z,5.03
2018-06-09T04:37:18.194Z,4.50
2018-06-09T04:39:46.205Z,4.40
2018-06-09T04:42:14.640Z,4.07
2018-06-09T04:44:43.149Z,4.30
2018-06-09T04:47:11.264Z,4.57
2018-06-09T04:49:39.342Z,4.33
2018-06-09T04:52:07.618Z,4.00
2018-06-09T04:54:35.682Z,4.27
2018-06-09T04:57:03.743Z,4.30
2018-06-09T04:59:31.811Z,3.87
2018-06-09T05:01:59.873Z,4.00
2018-06-09T05:04:28.023Z,3.67
2018-06-09T05:06:56.077Z,3.70
2018-06-09T05:09:24.168Z,3.93
2018-06-09T05:11:52.263Z,3.80
2018-06-09T05:14:20.803Z,3.73
2018-06-09T05:16:49.021Z,3.90
2018-06-09T05:19:17.244Z,3.63
2018-06-09T05:21:45.430Z,3.57
2018-06-09T05:24:13.774Z,3.33
2018-06-09T05:26:42.123Z,3.30
2018-06-09T05:29:10.332Z,3.90
2018-06-09T05:31:38.418Z,3.50
2018-06-09T05:34:06.676Z,3.20
2018-06-09T05:36:34.832Z,2.97
2018-06-09T05:39:02.937Z,3.30
2018-06-09T05:41:31.008Z,3.37
2018-06-09T05:43:59.100Z,3.40
2018-06-09T05:46:27.272Z,3.53
2018-06-09T05:48:55.344Z,3.00
2018-06-09T05:51:23.428Z,2.97
2018-06-09T05:53:51.552Z,3.00
2018-06-09T05:56:19.741Z,3.10
2018-06-09T05:58:47.889Z,3.40
2018-06-09T06:01:16.042Z,3.17
2018-06-09T06:03:44.274Z,3.17
2018-06-09T06:06:12.472Z,3.07
2018-06-09T06:08:40.688Z,2.90
2018-06-09T06:11:08.777Z,2.90
2018-06-09T06:13:36.872Z,3.07
2018-06-09T06:16:04.982Z,2.67
2018-06-09T06:18:32.839Z,3.00
2018-06-09T06:21:00.925Z,2.73
2018-06-09T06:23:29.016Z,3.00
2018-06-09T06:25:57.216Z,2.77
2018-06-09T06:28:25.328Z,2.77
2018-06-09T06:30:53.418Z,3.07
2018-06-09T06:33:21.528Z,2.80
2018-06-09T06:35:49.697Z,2.50
2018-06-09T06:38:17.983Z,2.90
2018-06-09T06:40:46.129Z,2.73
2018-06-09T06:43:14.320Z,2.60
2018-06-09T06:45:42.652Z,2.60
2018-06-09T06:48:11.439Z,2.47
2018-06-09T06:50:39.757Z,2.80
2018-06-09T06:53:07.815Z,2.90
2018-06-09T06:55:35.904Z,2.40
2018-06-09T06:58:03.984Z,2.60
2018-06-09T07:00:32.065Z,2.40
2018-06-09T07:03:00.181Z,2.70
2018-06-09T07:05:28.308Z,2.43
2018-06-09T07:07:56.484Z,2.60
2018-06-09T07:10:24.621Z,2.50
2018-06-09T07:12:52.827Z,2.50
2018-06-09T07:15:20.816Z,2.40
2018-06-09T07:17:49.063Z,2.47
2018-06-09T07:20:17.224Z,2.80
2018-06-09T07:22:45.397Z,2.40
2018-06-09T07:25:13.600Z,2.30
2018-06-09T07:27:41.958Z,2.60
2018-06-09T07:30:09.858Z,2.80
2018-06-09T07:32:37.968Z,2.37
2018-06-09T07:35:06.083Z,2.43
2018-06-09T07:37:34.156Z,2.50
2018-06-09T07:40:02.231Z,2.60
2018-06-09T07:42:30.365Z,2.60
2018-06-09T07:44:58.575Z,2.50
2018-06-09T07:47:26.761Z,2.50
2018-06-09T07:49:54.947Z,2.57
2018-06-09T07:52:23.047Z,2.27
2018-06-09T07:54:51.252Z,2.60
2018-06-09T07:57:19.585Z,2.30
2018-06-09T07:59:47.863Z,2.30
2018-06-09T08:02:16.090Z,2.40
2018-06-09T08:04:44.360Z,2.70
2018-06-09T08:07:12.636Z,2.57
2018-06-09T08:09:40.843Z,2.47
2018-06-09T08:12:08.908Z,2.13
2018-06-09T08:14:36.975Z,2.37
2018-06-09T08:17:05.367Z,2.30
2018-06-09T08:19:33.448Z,2.37
2018-06-09T08:22:01.598Z,2.30
2018-06-09T08:24:29.757Z,2.30
2018-06-09T08:26:57.860Z,2.20
2018-06-09T08:29:26.021Z,2.60
2018-06-09T08:31:54.101Z,2.63
2018-06-09T08:34:22.225Z,2.40
2018-06-09T08:36:50.683Z,1.97
2018-06-09T08:39:18.996Z,2.03
2018-06-09T08:41:47.206Z,5.77
2018-06-09T08:44:16.081Z,5.73
2018-06-09T08:46:44.372Z,3.70
2018-06-09T08:49:13.112Z,2.80
2018-06-09T08:51:41.550Z,4.10
2018-06-09T08:54:09.821Z,2.67
2018-06-09T08:56:37.921Z,3.73
2018-06-09T08:59:06.269Z,2.73
2018-06-09T09:01:34.159Z,2.80
2018-06-09T09:04:02.272Z,2.40
2018-06-09T09:06:30.333Z,2.57
2018-06-09T09:08:59.476Z,3.07
2018-06-09T09:11:27.773Z,2.60
2018-06-09T09:13:55.888Z,2.63
2018-06-09T09:16:23.999Z,3.47
2018-06-09T09:18:52.337Z,2.40
2018-06-09T09:21:20.662Z,2.50
2018-06-09T09:23:48.894Z,2.20
2018-06-09T09:26:17.414Z,2.50
2018-06-09T09:28:45.896Z,2.30
2018-06-09T09:31:14.139Z,2.80
2018-06-09T09:33:42.384Z,2.40
2018-06-09T09:36:10.501Z,2.53
2018-06-09T09:38:38.645Z,2.20
2018-06-09T09:41:06.728Z,2.20
2018-06-09T09:43:34.821Z,2.50
2018-06-09T09:46:02.685Z,2.27
2018-06-09T09:48:30.751Z,2.57
2018-06-09T09:50:58.856Z,1.97
2018-06-09T09:53:27.052Z,3.00
2018-06-09T09:55:55.136Z,2.10
2018-06-09T09:58:23.335Z,1.93
2018-06-09T10:00:51.719Z,2.00
2018-06-09T10:03:19.897Z,2.13
2018-06-09T10:05:48.172Z,2.10
2018-06-09T10:08:16.504Z,2.27
2018-06-09T10:10:44.704Z,2.13
2018-06-09T10:13:12.975Z,1.93
2018-06-09T10:15:41.771Z,1.83
2018-06-09T10:18:09.954Z,2.17
2018-06-09T10:20:38.045Z,2.20
2018-06-09T10:23:06.184Z,2.13
2018-06-09T10:25:34.279Z,2.07
2018-06-09T10:28:02.279Z,2.50
2018-06-09T10:30:30.369Z,2.40
2018-06-09T10:32:58.460Z,2.37
2018-06-09T10:35:26.693Z,2.10
2018-06-09T10:37:54.843Z,2.53
2018-06-09T10:40:22.964Z,2.20
2018-06-09T10:42:51.117Z,2.50
2018-06-09T10:45:19.326Z,2.30
2018-06-09T10:47:47.531Z,2.40
2018-06-09T10:50:15.860Z,2.60
2018-06-09T10:52:44.137Z,2.10
2018-06-09T10:55:12.184Z,2.37
2018-06-09T10:57:40.408Z,4.00
2018-06-09T11:00:08.501Z,4.57
2018-06-09T11:02:36.569Z,4.07
2018-06-09T11:05:04.720Z,3.53
2018-06-09T11:07:33.080Z,5.03
2018-06-09T11:10:01.208Z,3.97
2018-06-09T11:12:29.293Z,3.50
2018-06-09T11:14:57.410Z,3.33
2018-06-09T11:17:25.585Z,4.03
2018-06-09T11:19:53.669Z,3.37
2018-06-09T11:22:22.013Z,3.03
2018-06-09T11:24:50.253Z,2.80
2018-06-09T11:27:20.245Z,6.00
2018-06-09T11:29:48.836Z,2.70
2018-06-09T11:32:17.119Z,2.87
2018-06-09T11:34:45.605Z,2.63
2018-06-09T11:38:29.112Z,2.37
2018-06-09T11:40:57.317Z,2.40
2018-06-09T11:43:25.372Z,2.20
2018-06-09T11:45:53.661Z,2.20
2018-06-09T11:48:22.192Z,2.03
2018-06-09T11:50:50.304Z,2.50
2018-06-09T11:53:18.606Z,2.30
2018-06-09T11:55:47.300Z,2.30
2018-06-09T11:58:15.632Z,2.10
2018-06-09T12:00:46.961Z,2.13
2018-06-09T12:03:15.136Z,2.80
2018-06-09T12:05:43.678Z,2.50
2018-06-09T12:08:11.845Z,2.77
2018-06-09T12:10:39.944Z,2.20
2018-06-09T12:13:08.179Z,2.57
2018-06-09T12:15:36.258Z,2.43
2018-06-09T12:18:04.612Z,2.37
2018-06-09T12:20:32.544Z,2.80
2018-06-09T12:23:00.652Z,3.60
2018-06-09T12:25:29.623Z,2.93
2018-06-09T12:27:57.733Z,2.93
2018-06-09T12:30:25.972Z,25.97
2018-06-09T12:32:54.121Z,13.27
2018-06-09T12:35:22.305Z,14.13
2018-06-09T12:37:50.581Z,10.67
2018-06-09T12:40:18.724Z,9.00
2018-06-09T12:42:46.951Z,7.90
2018-06-09T12:45:15.202Z,7.77
2018-06-09T12:47:43.482Z,6.77
2018-06-09T12:50:12.024Z,6.10
2018-06-09T12:52:40.157Z,5.73
2018-06-09T12:55:08.352Z,6.10
2018-06-09T12:57:36.515Z,5.43
2018-06-09T13:00:04.596Z,4.53
2018-06-09T13:02:32.760Z,4.90
2018-06-09T13:05:01.016Z,4.53
2018-06-09T13:07:29.104Z,5.03
2018-06-09T13:09:57.176Z,6.47
2018-06-09T13:12:25.251Z,6.27
2018-06-09T13:14:53.304Z,6.10
2018-06-09T13:17:21.668Z,5.60
2018-06-09T13:19:49.692Z,4.90
2018-06-09T13:22:17.817Z,5.00
2018-06-09T13:24:46.005Z,4.87
2018-06-09T13:27:14.147Z,4.30
2018-06-09T13:29:42.310Z,4.60
2018-06-09T13:32:11.014Z,4.37
2018-06-09T13:34:39.399Z,4.50
2018-06-09T13:37:07.572Z,4.13
2018-06-09T13:39:35.827Z,3.73
2018-06-09T13:42:03.996Z,4.03
2018-06-09T13:44:32.675Z,4.53
2018-06-09T13:47:00.807Z,4.33
2018-06-09T13:49:29.204Z,3.60
2018-06-09T13:51:57.731Z,4.00
2018-06-09T13:54:25.931Z,4.47
2018-06-09T13:56:54.024Z,4.13
2018-06-09T13:59:23.902Z,4.07
2018-06-09T14:01:52.019Z,3.97
2018-06-09T14:04:20.829Z,3.83
2018-06-09T14:06:48.975Z,5.00
2018-06-09T14:09:17.140Z,4.43
2018-06-09T14:11:45.259Z,4.40
2018-06-09T14:14:13.556Z,4.50
2018-06-09T14:16:41.736Z,4.50
2018-06-09T14:19:09.927Z,4.23
2018-06-09T14:21:38.097Z,4.67
2018-06-09T14:24:06.708Z,4.20
2018-06-09T14:26:34.969Z,4.37
2018-06-09T14:29:03.134Z,4.60
2018-06-09T14:31:31.274Z,4.37
2018-06-09T14:34:00.189Z,6.20
2018-06-09T14:36:28.514Z,4.57
2018-06-09T14:38:56.754Z,4.10
2018-06-09T14:41:24.833Z,4.10
2018-06-09T14:43:52.891Z,4.20
2018-06-09T14:46:21.164Z,3.93
2018-06-09T14:48:49.220Z,4.00
2018-06-09T14:51:17.274Z,3.87
2018-06-09T14:53:45.439Z,3.93
2018-06-09T14:56:13.507Z,4.43
2018-06-09T14:58:41.571Z,4.80
2018-06-09T15:01:09.668Z,4.60
2018-06-09T15:03:37.861Z,4.53
2018-06-09T15:06:06.100Z,4.10
2018-06-09T15:08:34.415Z,4.70
2018-06-09T15:11:05.833Z,4.47
2018-06-09T15:13:34.508Z,4.60
2018-06-09T15:16:02.632Z,5.00
2018-06-09T15:18:30.793Z,4.37
2018-06-09T15:20:59.202Z,4.83
2018-06-09T15:23:28.340Z,4.10
2018-06-09T15:25:56.487Z,4.60
2018-06-09T15:28:24.628Z,3.83
2018-06-09T15:30:52.736Z,4.83
2018-06-09T15:33:21.115Z,4.93
2018-06-09T15:35:49.204Z,4.63
2018-06-09T15:38:17.773Z,3.97
2018-06-09T15:40:45.865Z,4.93
2018-06-09T15:43:14.445Z,3.47
2018-06-09T15:45:42.617Z,3.93
2018-06-09T15:48:10.688Z,4.13
2018-06-09T15:50:38.860Z,4.33
2018-06-09T15:53:07.117Z,4.40
2018-06-09T15:55:35.245Z,4.30
2018-06-09T15:58:03.625Z,4.40
2018-06-09T16:00:31.780Z,4.33
2018-06-09T16:03:00.484Z,4.03
2018-06-09T16:05:28.872Z,4.03
2018-06-09T16:07:57.619Z,3.90
2018-06-09T16:10:26.059Z,3.80
2018-06-09T16:12:54.164Z,4.23
2018-06-09T16:15:22.260Z,3.80
2018-06-09T16:17:50.360Z,3.67
2018-06-09T16:20:18.494Z,4.07
2018-06-09T16:22:46.573Z,3.90
2018-06-09T16:25:14.767Z,3.77
2018-06-09T16:27:42.839Z,3.87
2018-06-09T16:30:10.968Z,3.80
2018-06-09T16:32:39.086Z,3.60
2018-06-09T16:35:07.121Z,3.83
2018-06-09T16:37:35.264Z,3.20
2018-06-09T16:40:03.492Z,3.23
2018-06-09T16:42:31.684Z,3.73
2018-06-09T16:44:59.828Z,3.90
2018-06-09T16:47:28.417Z,3.60
2018-06-09T16:49:56.873Z,3.70
2018-06-09T16:52:25.093Z,3.70
2018-06-09T16:54:53.175Z,3.40
2018-06-09T16:57:21.274Z,3.43
2018-06-09T16:59:49.487Z,3.60
2018-06-09T17:02:17.569Z,3.67
2018-06-09T17:04:45.657Z,3.47
2018-06-09T17:07:13.717Z,3.30
2018-06-09T17:09:41.830Z,3.13
2018-06-09T17:12:09.929Z,3.33
2018-06-09T17:14:38.100Z,3.50
2018-06-09T17:17:06.216Z,3.07
2018-06-09T17:19:34.361Z,3.30
2018-06-09T17:22:02.265Z,3.50
2018-06-09T17:24:30.523Z,2.93
2018-06-09T17:26:58.677Z,3.27
2018-06-09T17:29:26.764Z,3.23
2018-06-09T17:31:54.828Z,3.07
2018-06-09T17:34:22.980Z,3.50
2018-06-09T17:36:51.039Z,3.20
2018-06-09T17:39:19.272Z,3.23
2018-06-09T17:41:47.368Z,3.30
2018-06-09T17:44:15.440Z,3.70
2018-06-09T17:46:43.626Z,3.43
2018-06-09T17:49:11.725Z,3.30
2018-06-09T17:51:39.809Z,3.37
2018-06-09T17:54:08.028Z,3.40
2018-06-09T17:56:36.211Z,3.17
2018-06-09T17:59:04.434Z,2.77
2018-06-09T18:01:32.596Z,3.10
2018-06-09T18:04:00.714Z,2.93
2018-06-09T18:06:28.844Z,3.13
2018-06-09T18:08:57.092Z,3.00
2018-06-09T18:11:25.180Z,2.80
2018-06-09T18:13:53.269Z,3.10
2018-06-09T18:16:21.352Z,3.10
2018-06-09T18:18:49.432Z,3.10
2018-06-09T18:21:17.593Z,2.97
2018-06-09T18:23:45.636Z,3.00
2018-06-09T18:26:13.708Z,2.93
2018-06-09T18:28:41.852Z,2.80
2018-06-09T18:31:09.957Z,2.90
2018-06-09T18:33:38.062Z,2.87
2018-06-09T18:36:06.148Z,2.87
2018-06-09T18:38:34.355Z,2.80
2018-06-09T18:41:02.569Z,2.80
2018-06-09T18:43:30.878Z,2.73
2018-06-09T18:45:59.013Z,2.90
2018-06-09T18:48:27.184Z,2.70
2018-06-09T18:50:55.360Z,2.67
2018-06-09T18:53:23.484Z,2.70
2018-06-09T18:55:51.552Z,2.83
2018-06-09T18:58:19.664Z,3.07
2018-06-09T19:00:47.726Z,2.67
2018-06-09T19:03:15.801Z,2.60
2018-06-09T19:05:44.000Z,2.93
2018-06-09T19:08:12.080Z,2.77
2018-06-09T19:10:40.210Z,3.10
2018-06-09T19:13:08.284Z,2.90
2018-06-09T19:15:36.414Z,2.77
2018-06-09T19:18:04.633Z,2.70
2018-06-09T19:20:32.808Z,2.70
2018-06-09T19:23:00.930Z,2.73
2018-06-09T19:25:29.089Z,3.03
2018-06-09T19:27:57.609Z,2.53
2018-06-09T19:30:25.734Z,2.70
2018-06-09T19:32:53.891Z,2.70
2018-06-09T19:35:21.951Z,2.50
2018-06-09T19:37:49.816Z,2.80
2018-06-09T19:40:17.976Z,2.60
2018-06-09T19:42:46.050Z,2.50
2018-06-09T19:45:14.117Z,2.60
2018-06-09T19:47:42.226Z,2.40
2018-06-09T19:50:10.304Z,2.60
2018-06-09T19:52:38.425Z,2.60
2018-06-09T19:55:06.654Z,2.37
2018-06-09T19:57:34.743Z,2.40
2018-06-09T20:00:02.923Z,2.27
2018-06-09T20:02:31.114Z,2.33
2018-06-09T20:04:59.312Z,2.70
2018-06-09T20:07:27.444Z,2.50
2018-06-09T20:09:55.635Z,2.50
2018-06-09T20:12:23.707Z,2.60
2018-06-09T20:14:51.568Z,2.40
2018-06-09T20:17:19.728Z,2.40
2018-06-09T20:19:47.801Z,2.30
2018-06-09T20:22:15.900Z,2.33
2018-06-09T20:24:43.972Z,2.73
2018-06-09T20:27:12.043Z,2.67
2018-06-09T20:29:40.156Z,2.43
2018-06-09T20:32:08.268Z,2.60
2018-06-09T20:34:36.384Z,2.47
2018-06-09T20:37:04.300Z,2.57
2018-06-09T20:39:32.410Z,2.53
2018-06-09T20:42:00.505Z,2.27
2018-06-09T20:44:28.724Z,2.40
2018-06-09T20:46:56.834Z,2.20
2018-06-09T20:49:25.004Z,2.30
2018-06-09T20:51:53.210Z,2.37
2018-06-09T20:54:21.270Z,2.40
2018-06-09T20:56:49.315Z,2.33
2018-06-09T20:59:17.392Z,2.50
2018-06-09T21:01:45.497Z,2.60
2018-06-09T21:04:13.600Z,2.27
2018-06-09T21:06:41.730Z,2.50
2018-06-09T21:09:09.824Z,2.20
2018-06-09T21:11:38.001Z,2.50
2018-06-09T21:14:06.095Z,2.20
2018-06-09T21:16:34.194Z,2.17
2018-06-09T21:19:02.347Z,2.30
2018-06-09T21:21:30.560Z,2.37
2018-06-09T21:23:58.684Z,2.40
2018-06-09T21:26:31.070Z,2.20
2018-06-09T21:28:59.217Z,2.30
2018-06-09T21:31:33.277Z,2.40
2018-06-09T21:34:06.888Z,2.23
2018-06-09T21:36:40.553Z,2.30
2018-06-09T21:39:13.427Z,2.30
2018-06-09T21:41:47.210Z,2.67
2018-06-09T21:44:20.818Z,2.30
2018-06-09T21:46:49.197Z,2.07
2018-06-09T21:49:17.485Z,2.20
2018-06-09T21:51:45.564Z,2.30
2018-06-09T21:54:13.660Z,2.20
2018-06-09T21:56:41.781Z,2.10
2018-06-09T21:59:09.872Z,2.20
2018-06-09T22:01:38.108Z,2.40
2018-06-09T22:04:06.229Z,2.57
2018-06-09T22:06:34.270Z,2.40
2018-06-09T22:09:02.473Z,2.00
2018-06-09T22:11:30.654Z,2.43
2018-06-09T22:13:58.739Z,2.30
2018-06-09T22:16:26.972Z,2.47
2018-06-09T22:18:55.129Z,2.20
2018-06-09T22:21:23.217Z,2.10
2018-06-09T22:23:51.308Z,2.50
2018-06-09T22:26:19.532Z,2.17
2018-06-09T22:28:47.633Z,2.47
2018-06-09T22:31:15.704Z,2.40
2018-06-09T22:33:43.877Z,2.27
2018-06-09T22:36:11.974Z,2.43
2018-06-09T22:38:40.044Z,2.40
2018-06-09T22:41:08.152Z,2.33
2018-06-09T22:43:36.294Z,2.23
2018-06-09T22:46:04.428Z,2.27
2018-06-09T22:48:32.641Z,2.20
2018-06-09T22:51:00.811Z,2.23
2018-06-09T22:53:28.968Z,2.27
2018-06-09T22:55:57.122Z,2.23
2018-06-09T22:58:25.258Z,2.30
2018-06-09T23:00:53.430Z,2.33
2018-06-09T23:03:21.560Z,2.00
2018-06-09T23:05:49.631Z,2.10
2018-06-09T23:08:17.722Z,2.30
2018-06-09T23:10:45.806Z,2.20
2018-06-09T23:13:13.903Z,2.13
2018-06-09T23:15:41.972Z,2.40
2018-06-09T23:18:10.089Z,2.10
2018-06-09T23:20:38.192Z,2.20
2018-06-09T23:23:06.312Z,2.40
2018-06-09T23:25:34.485Z,2.20
2018-06-09T23:28:02.821Z,2.07
2018-06-09T23:30:30.959Z,2.40
2018-06-09T23:32:59.104Z,2.30
2018-06-09T23:35:27.345Z,2.20
2018-06-09T23:37:55.514Z,2.07
2018-06-09T23:40:23.637Z,2.40
2018-06-09T23:42:51.768Z,2.40
2018-06-09T23:45:20.006Z,2.70
2018-06-09T23:47:48.085Z,2.03
2018-06-09T23:50:16.219Z,2.00
2018-06-09T23:52:44.300Z,2.10
2018-06-09T23:55:12.191Z,2.33
2018-06-09T23:57:40.285Z,2.10
